sensor_id;sensor_type;location;lat;lon;timestamp;P1;durP1;ratioP1;P2;durP2;ratioP2
71456;SDS011;59263;48.160;11.752;2022-07-05T00:01:34;13.73;;;5.72;;
71456;SDS011;59263;48.160;11.752;2022-07-05T00:03:59;11.13;;;5.70;;
71456;SDS011;59263;48.160;11.752;2022-07-05T00:06:24;12.43;;;5.93;;
71456;SDS011;59263;48.160;11.752;2022-07-05T00:08:50;14.53;;;5.60;;
71456;SDS011;59263;48.160;11.752;2022-07-05T00:11:15;14.07;;;6.43;;
71456;SDS011;59263;48.160;11.752;2022-07-05T00:13:41;13.88;;;6.32;;
71456;SDS011;59263;48.160;11.752;2022-07-05T00:16:06;11.40;;;5.90;;
71456;SDS011;59263;48.160;11.752;2022-07-05T00:18:32;13.27;;;5.77;;
71456;SDS011;59263;48.160;11.752;2022-07-05T00:20:57;14.20;;;6.27;;
71456;SDS011;59263;48.160;11.752;2022-07-05T00:23:23;14.70;;;6.07;;
71456;SDS011;59263;48.160;11.752;2022-07-05T00:25:49;13.60;;;6.30;;
71456;SDS011;59263;48.160;11.752;2022-07-05T00:28:14;14.50;;;5.70;;
71456;SDS011;59263;48.160;11.752;2022-07-05T00:30:40;15.88;;;5.85;;
71456;SDS011;59263;48.160;11.752;2022-07-05T00:33:05;12.77;;;5.77;;
71456;SDS011;59263;48.160;11.752;2022-07-05T00:35:31;14.85;;;5.57;;
71456;SDS011;59263;48.160;11.752;2022-07-05T00:37:56;12.70;;;6.23;;
71456;SDS011;59263;48.160;11.752;2022-07-05T00:40:21;14.47;;;6.20;;
71456;SDS011;59263;48.160;11.752;2022-07-05T00:42:47;14.13;;;5.97;;
71456;SDS011;59263;48.160;11.752;2022-07-05T00:45:12;11.97;;;5.97;;
71456;SDS011;59263;48.160;11.752;2022-07-05T00:47:37;11.40;;;5.63;;
71456;SDS011;59263;48.160;11.752;2022-07-05T00:50:03;12.00;;;5.87;;
71456;SDS011;59263;48.160;11.752;2022-07-05T00:52:28;13.57;;;6.25;;
71456;SDS011;59263;48.160;11.752;2022-07-05T00:54:54;14.10;;;6.47;;
71456;SDS011;59263;48.160;11.752;2022-07-05T00:57:20;10.57;;;4.93;;
71456;SDS011;59263;48.160;11.752;2022-07-05T00:59:46;10.68;;;4.80;;
71456;SDS011;59263;48.160;11.752;2022-07-05T01:02:12;12.77;;;4.23;;
71456;SDS011;59263;48.160;11.752;2022-07-05T01:04:37;11.00;;;4.22;;
71456;SDS011;59263;48.160;11.752;2022-07-05T01:07:03;10.40;;;3.43;;
71456;SDS011;59263;48.160;11.752;2022-07-05T01:09:29;9.50;;;3.60;;
71456;SDS011;59263;48.160;11.752;2022-07-05T01:11:54;10.30;;;3.40;;
71456;SDS011;59263;48.160;11.752;2022-07-05T01:14:21;11.40;;;3.70;;
71456;SDS011;59263;48.160;11.752;2022-07-05T01:16:48;9.02;;;3.53;;
71456;SDS011;59263;48.160;11.752;2022-07-05T01:19:14;11.23;;;4.38;;
71456;SDS011;59263;48.160;11.752;2022-07-05T01:21:42;12.65;;;4.18;;
71456;SDS011;59263;48.160;11.752;2022-07-05T01:24:11;11.07;;;4.75;;
71456;SDS011;59263;48.160;11.752;2022-07-05T01:26:38;9.93;;;4.43;;
71456;SDS011;59263;48.160;11.752;2022-07-05T01:29:05;10.80;;;4.35;;
71456;SDS011;59263;48.160;11.752;2022-07-05T01:31:31;10.10;;;4.68;;
71456;SDS011;59263;48.160;11.752;2022-07-05T01:33:57;12.57;;;4.37;;
71456;SDS011;59263;48.160;11.752;2022-07-05T01:36:23;10.35;;;4.45;;
71456;SDS011;59263;48.160;11.752;2022-07-05T01:38:49;10.43;;;4.55;;
71456;SDS011;59263;48.160;11.752;2022-07-05T01:41:14;12.68;;;4.60;;
71456;SDS011;59263;48.160;11.752;2022-07-05T01:43:40;12.43;;;4.63;;
71456;SDS011;59263;48.160;11.752;2022-07-05T01:46:05;11.27;;;4.95;;
71456;SDS011;59263;48.160;11.752;2022-07-05T01:48:33;14.52;;;5.32;;
71456;SDS011;59263;48.160;11.752;2022-07-05T01:51:20;17.73;;;5.85;;
71456;SDS011;59263;48.160;11.752;2022-07-05T01:53:51;12.52;;;5.88;;
71456;SDS011;59263;48.160;11.752;2022-07-05T01:56:17;11.55;;;4.93;;
71456;SDS011;59263;48.160;11.752;2022-07-05T01:58:42;10.13;;;4.57;;
71456;SDS011;59263;48.160;11.752;2022-07-05T02:01:09;12.60;;;4.90;;
71456;SDS011;59263;48.160;11.752;2022-07-05T02:03:34;12.87;;;5.33;;
71456;SDS011;59263;48.160;11.752;2022-07-05T02:06:01;10.80;;;4.93;;
71456;SDS011;59263;48.160;11.752;2022-07-05T02:08:29;14.07;;;5.50;;
71456;SDS011;59263;48.160;11.752;2022-07-05T02:10:55;11.98;;;5.63;;
71456;SDS011;59263;48.160;11.752;2022-07-05T02:13:22;13.32;;;6.05;;
71456;SDS011;59263;48.160;11.752;2022-07-05T02:15:47;12.37;;;5.80;;
71456;SDS011;59263;48.160;11.752;2022-07-05T02:18:13;11.82;;;6.28;;
71456;SDS011;59263;48.160;11.752;2022-07-05T02:20:39;14.70;;;6.43;;
71456;SDS011;59263;48.160;11.752;2022-07-05T02:23:05;12.65;;;6.15;;
71456;SDS011;59263;48.160;11.752;2022-07-05T02:25:30;14.20;;;6.22;;
71456;SDS011;59263;48.160;11.752;2022-07-05T02:27:55;12.63;;;6.60;;
71456;SDS011;59263;48.160;11.752;2022-07-05T02:30:21;14.93;;;6.27;;
71456;SDS011;59263;48.160;11.752;2022-07-05T02:32:46;11.77;;;5.60;;
71456;SDS011;59263;48.160;11.752;2022-07-05T02:35:12;13.53;;;7.03;;
71456;SDS011;59263;48.160;11.752;2022-07-05T02:37:38;15.82;;;6.28;;
71456;SDS011;59263;48.160;11.752;2022-07-05T02:40:07;11.88;;;5.93;;
71456;SDS011;59263;48.160;11.752;2022-07-05T02:42:37;11.77;;;6.20;;
71456;SDS011;59263;48.160;11.752;2022-07-05T02:45:04;13.35;;;6.53;;
71456;SDS011;59263;48.160;11.752;2022-07-05T02:47:31;13.85;;;6.93;;
71456;SDS011;59263;48.160;11.752;2022-07-05T02:49:57;12.35;;;6.15;;
71456;SDS011;59263;48.160;11.752;2022-07-05T02:52:23;13.07;;;6.78;;
71456;SDS011;59263;48.160;11.752;2022-07-05T02:54:49;13.73;;;6.25;;
71456;SDS011;59263;48.160;11.752;2022-07-05T02:57:14;13.20;;;6.30;;
71456;SDS011;59263;48.160;11.752;2022-07-05T02:59:39;16.37;;;7.20;;
71456;SDS011;59263;48.160;11.752;2022-07-05T03:02:05;11.57;;;5.73;;
71456;SDS011;59263;48.160;11.752;2022-07-05T03:04:31;11.90;;;5.30;;
71456;SDS011;59263;48.160;11.752;2022-07-05T03:06:56;14.37;;;6.10;;
71456;SDS011;59263;48.160;11.752;2022-07-05T03:09:21;11.13;;;6.07;;
71456;SDS011;59263;48.160;11.752;2022-07-05T03:11:46;18.30;;;6.13;;
71456;SDS011;59263;48.160;11.752;2022-07-05T03:14:12;11.50;;;5.80;;
71456;SDS011;59263;48.160;11.752;2022-07-05T03:16:37;13.40;;;6.10;;
71456;SDS011;59263;48.160;11.752;2022-07-05T03:19:03;9.98;;;5.07;;
71456;SDS011;59263;48.160;11.752;2022-07-05T03:21:29;10.83;;;5.13;;
71456;SDS011;59263;48.160;11.752;2022-07-05T03:23:54;11.70;;;4.77;;
71456;SDS011;59263;48.160;11.752;2022-07-05T03:26:19;8.68;;;4.18;;
71456;SDS011;59263;48.160;11.752;2022-07-05T03:28:44;8.87;;;3.83;;
71456;SDS011;59263;48.160;11.752;2022-07-05T03:31:10;8.80;;;3.90;;
71456;SDS011;59263;48.160;11.752;2022-07-05T03:33:35;9.77;;;4.00;;
71456;SDS011;59263;48.160;11.752;2022-07-05T03:36:00;11.07;;;4.07;;
71456;SDS011;59263;48.160;11.752;2022-07-05T03:38:25;10.13;;;4.10;;
71456;SDS011;59263;48.160;11.752;2022-07-05T03:40:51;9.10;;;3.83;;
71456;SDS011;59263;48.160;11.752;2022-07-05T03:43:16;11.27;;;4.10;;
71456;SDS011;59263;48.160;11.752;2022-07-05T03:45:41;10.83;;;3.90;;
71456;SDS011;59263;48.160;11.752;2022-07-05T03:48:07;10.50;;;4.50;;
71456;SDS011;59263;48.160;11.752;2022-07-05T03:50:32;9.73;;;4.18;;
71456;SDS011;59263;48.160;11.752;2022-07-05T03:52:57;13.73;;;4.00;;
71456;SDS011;59263;48.160;11.752;2022-07-05T03:55:23;10.77;;;3.80;;
71456;SDS011;59263;48.160;11.752;2022-07-05T03:57:48;9.87;;;4.17;;
71456;SDS011;59263;48.160;11.752;2022-07-05T04:00:13;10.87;;;3.80;;
71456;SDS011;59263;48.160;11.752;2022-07-05T04:02:39;9.80;;;3.70;;
71456;SDS011;59263;48.160;11.752;2022-07-05T04:05:05;10.50;;;3.93;;
71456;SDS011;59263;48.160;11.752;2022-07-05T04:07:31;8.38;;;3.60;;
71456;SDS011;59263;48.160;11.752;2022-07-05T04:09:56;10.13;;;4.03;;
71456;SDS011;59263;48.160;11.752;2022-07-05T04:12:21;8.80;;;3.87;;
71456;SDS011;59263;48.160;11.752;2022-07-05T04:14:47;10.17;;;4.20;;
71456;SDS011;59263;48.160;11.752;2022-07-05T04:17:12;9.20;;;3.80;;
71456;SDS011;59263;48.160;11.752;2022-07-05T04:19:37;12.87;;;4.10;;
71456;SDS011;59263;48.160;11.752;2022-07-05T04:22:03;12.00;;;4.50;;
71456;SDS011;59263;48.160;11.752;2022-07-05T04:24:29;9.07;;;4.10;;
71456;SDS011;59263;48.160;11.752;2022-07-05T04:26:54;10.97;;;4.03;;
71456;SDS011;59263;48.160;11.752;2022-07-05T04:29:19;9.55;;;4.00;;
71456;SDS011;59263;48.160;11.752;2022-07-05T04:31:45;11.40;;;4.40;;
71456;SDS011;59263;48.160;11.752;2022-07-05T04:34:10;10.30;;;4.17;;
71456;SDS011;59263;48.160;11.752;2022-07-05T04:36:35;11.07;;;4.40;;
71456;SDS011;59263;48.160;11.752;2022-07-05T04:39:02;11.95;;;4.28;;
71456;SDS011;59263;48.160;11.752;2022-07-05T04:41:28;9.35;;;3.65;;
71456;SDS011;59263;48.160;11.752;2022-07-05T04:43:54;9.63;;;4.18;;
71456;SDS011;59263;48.160;11.752;2022-07-05T04:46:19;9.57;;;3.97;;
71456;SDS011;59263;48.160;11.752;2022-07-05T04:48:44;9.40;;;3.80;;
71456;SDS011;59263;48.160;11.752;2022-07-05T04:51:10;9.77;;;3.60;;
71456;SDS011;59263;48.160;11.752;2022-07-05T04:53:35;9.60;;;3.77;;
71456;SDS011;59263;48.160;11.752;2022-07-05T04:56:00;14.07;;;4.10;;
71456;SDS011;59263;48.160;11.752;2022-07-05T04:58:26;8.85;;;3.63;;
71456;SDS011;59263;48.160;11.752;2022-07-05T05:00:51;9.88;;;3.95;;
71456;SDS011;59263;48.160;11.752;2022-07-05T05:03:16;11.67;;;4.37;;
71456;SDS011;59263;48.160;11.752;2022-07-05T05:05:42;11.23;;;4.80;;
71456;SDS011;59263;48.160;11.752;2022-07-05T05:08:07;9.63;;;4.00;;
71456;SDS011;59263;48.160;11.752;2022-07-05T05:10:32;11.87;;;4.53;;
71456;SDS011;59263;48.160;11.752;2022-07-05T05:12:58;13.73;;;4.50;;
71456;SDS011;59263;48.160;11.752;2022-07-05T05:15:23;11.53;;;4.50;;
71456;SDS011;59263;48.160;11.752;2022-07-05T05:17:48;11.03;;;4.10;;
71456;SDS011;59263;48.160;11.752;2022-07-05T05:20:15;10.85;;;4.35;;
71456;SDS011;59263;48.160;11.752;2022-07-05T05:22:43;12.35;;;4.05;;
71456;SDS011;59263;48.160;11.752;2022-07-05T05:25:08;12.83;;;4.13;;
71456;SDS011;59263;48.160;11.752;2022-07-05T05:27:35;11.30;;;4.15;;
71456;SDS011;59263;48.160;11.752;2022-07-05T05:30:01;9.63;;;4.00;;
71456;SDS011;59263;48.160;11.752;2022-07-05T05:32:26;10.85;;;3.47;;
71456;SDS011;59263;48.160;11.752;2022-07-05T05:34:52;11.03;;;3.60;;
71456;SDS011;59263;48.160;11.752;2022-07-05T05:37:17;8.50;;;3.67;;
71456;SDS011;59263;48.160;11.752;2022-07-05T05:39:42;9.90;;;3.73;;
71456;SDS011;59263;48.160;11.752;2022-07-05T05:42:08;10.77;;;4.37;;
71456;SDS011;59263;48.160;11.752;2022-07-05T05:44:33;9.93;;;4.00;;
71456;SDS011;59263;48.160;11.752;2022-07-05T05:46:58;8.80;;;3.60;;
71456;SDS011;59263;48.160;11.752;2022-07-05T05:49:24;13.00;;;3.35;;
71456;SDS011;59263;48.160;11.752;2022-07-05T05:51:49;9.67;;;3.53;;
71456;SDS011;59263;48.160;11.752;2022-07-05T05:54:15;8.27;;;3.00;;
71456;SDS011;59263;48.160;11.752;2022-07-05T05:56:40;9.83;;;3.60;;
71456;SDS011;59263;48.160;11.752;2022-07-05T05:59:05;10.77;;;3.77;;
71456;SDS011;59263;48.160;11.752;2022-07-05T06:01:30;11.30;;;3.70;;
71456;SDS011;59263;48.160;11.752;2022-07-05T06:03:56;10.40;;;4.23;;
71456;SDS011;59263;48.160;11.752;2022-07-05T06:06:21;8.80;;;3.60;;
71456;SDS011;59263;48.160;11.752;2022-07-05T06:08:46;10.23;;;3.95;;
71456;SDS011;59263;48.160;11.752;2022-07-05T06:11:12;14.30;;;3.67;;
71456;SDS011;59263;48.160;11.752;2022-07-05T06:13:38;10.15;;;3.50;;
71456;SDS011;59263;48.160;11.752;2022-07-05T06:16:05;11.93;;;4.13;;
71456;SDS011;59263;48.160;11.752;2022-07-05T06:18:31;10.90;;;4.60;;
71456;SDS011;59263;48.160;11.752;2022-07-05T06:20:56;11.67;;;5.13;;
71456;SDS011;59263;48.160;11.752;2022-07-05T06:23:22;11.17;;;5.17;;
71456;SDS011;59263;48.160;11.752;2022-07-05T06:25:47;11.80;;;5.03;;
71456;SDS011;59263;48.160;11.752;2022-07-05T06:28:12;10.77;;;5.07;;
71456;SDS011;59263;48.160;11.752;2022-07-05T06:30:38;13.27;;;5.30;;
71456;SDS011;59263;48.160;11.752;2022-07-05T06:33:04;12.93;;;5.68;;
71456;SDS011;59263;48.160;11.752;2022-07-05T06:35:30;13.00;;;6.20;;
71456;SDS011;59263;48.160;11.752;2022-07-05T06:38:02;12.75;;;6.10;;
71456;SDS011;59263;48.160;11.752;2022-07-05T06:40:31;10.63;;;4.90;;
71456;SDS011;59263;48.160;11.752;2022-07-05T06:42:58;17.50;;;6.05;;
71456;SDS011;59263;48.160;11.752;2022-07-05T06:45:24;12.00;;;6.15;;
71456;SDS011;59263;48.160;11.752;2022-07-05T06:47:54;11.48;;;5.70;;
71456;SDS011;59263;48.160;11.752;2022-07-05T06:50:19;12.02;;;6.10;;
71456;SDS011;59263;48.160;11.752;2022-07-05T06:52:45;13.98;;;5.95;;
71456;SDS011;59263;48.160;11.752;2022-07-05T06:55:10;10.67;;;5.47;;
71456;SDS011;59263;48.160;11.752;2022-07-05T06:57:35;11.47;;;5.73;;
71456;SDS011;59263;48.160;11.752;2022-07-05T07:00:01;13.20;;;5.93;;
71456;SDS011;59263;48.160;11.752;2022-07-05T07:02:27;10.95;;;4.97;;
71456;SDS011;59263;48.160;11.752;2022-07-05T07:04:52;11.47;;;5.00;;
71456;SDS011;59263;48.160;11.752;2022-07-05T07:07:18;10.13;;;4.63;;
71456;SDS011;59263;48.160;11.752;2022-07-05T07:10:02;11.13;;;5.03;;
71456;SDS011;59263;48.160;11.752;2022-07-05T07:12:28;10.85;;;4.70;;
71456;SDS011;59263;48.160;11.752;2022-07-05T07:14:54;8.63;;;4.60;;
71456;SDS011;59263;48.160;11.752;2022-07-05T07:17:20;10.48;;;4.53;;
71456;SDS011;59263;48.160;11.752;2022-07-05T07:19:46;8.10;;;4.30;;
71456;SDS011;59263;48.160;11.752;2022-07-05T07:22:11;11.00;;;4.57;;
71456;SDS011;59263;48.160;11.752;2022-07-05T07:24:36;10.13;;;3.80;;
71456;SDS011;59263;48.160;11.752;2022-07-05T07:27:02;8.00;;;3.70;;
71456;SDS011;59263;48.160;11.752;2022-07-05T07:29:27;8.90;;;3.50;;
71456;SDS011;59263;48.160;11.752;2022-07-05T07:31:53;10.73;;;4.43;;
71456;SDS011;59263;48.160;11.752;2022-07-05T07:34:20;11.07;;;4.47;;
71456;SDS011;59263;48.160;11.752;2022-07-05T07:36:45;9.05;;;4.07;;
71456;SDS011;59263;48.160;11.752;2022-07-05T07:39:10;11.00;;;4.20;;
71456;SDS011;59263;48.160;11.752;2022-07-05T07:41:36;10.53;;;4.57;;
71456;SDS011;59263;48.160;11.752;2022-07-05T07:44:01;12.13;;;5.00;;
71456;SDS011;59263;48.160;11.752;2022-07-05T07:46:27;12.77;;;4.67;;
71456;SDS011;59263;48.160;11.752;2022-07-05T07:48:52;8.90;;;4.17;;
71456;SDS011;59263;48.160;11.752;2022-07-05T07:51:18;10.70;;;4.40;;
71456;SDS011;59263;48.160;11.752;2022-07-05T07:53:46;8.13;;;3.95;;
71456;SDS011;59263;48.160;11.752;2022-07-05T07:56:12;11.35;;;4.05;;
71456;SDS011;59263;48.160;11.752;2022-07-05T07:58:37;10.63;;;3.38;;
71456;SDS011;59263;48.160;11.752;2022-07-05T08:01:02;11.73;;;3.57;;
71456;SDS011;59263;48.160;11.752;2022-07-05T08:03:28;8.30;;;3.57;;
71456;SDS011;59263;48.160;11.752;2022-07-05T08:05:53;11.73;;;3.70;;
71456;SDS011;59263;48.160;11.752;2022-07-05T08:08:19;9.60;;;3.45;;
71456;SDS011;59263;48.160;11.752;2022-07-05T08:10:44;8.70;;;3.40;;
71456;SDS011;59263;48.160;11.752;2022-07-05T08:13:09;10.37;;;3.30;;
71456;SDS011;59263;48.160;11.752;2022-07-05T08:15:34;7.43;;;3.17;;
71456;SDS011;59263;48.160;11.752;2022-07-05T08:18:00;7.53;;;3.20;;
71456;SDS011;59263;48.160;11.752;2022-07-05T08:20:44;8.93;;;2.70;;
71456;SDS011;59263;48.160;11.752;2022-07-05T08:23:27;8.32;;;2.58;;
71456;SDS011;59263;48.160;11.752;2022-07-05T08:25:53;9.70;;;2.80;;
71456;SDS011;59263;48.160;11.752;2022-07-05T08:28:18;6.17;;;2.20;;
71456;SDS011;59263;48.160;11.752;2022-07-05T08:30:43;6.63;;;2.20;;
71456;SDS011;59263;48.160;11.752;2022-07-05T08:33:09;9.57;;;2.33;;
71456;SDS011;59263;48.160;11.752;2022-07-05T08:35:34;8.77;;;2.40;;
71456;SDS011;59263;48.160;11.752;2022-07-05T08:37:59;7.77;;;2.27;;
71456;SDS011;59263;48.160;11.752;2022-07-05T08:40:25;9.17;;;2.30;;
71456;SDS011;59263;48.160;11.752;2022-07-05T08:42:52;7.68;;;2.45;;
71456;SDS011;59263;48.160;11.752;2022-07-05T08:45:19;6.90;;;2.58;;
71456;SDS011;59263;48.160;11.752;2022-07-05T08:47:45;7.72;;;2.75;;
71456;SDS011;59263;48.160;11.752;2022-07-05T08:50:12;8.00;;;2.22;;
71456;SDS011;59263;48.160;11.752;2022-07-05T08:52:40;6.23;;;2.00;;
71456;SDS011;59263;48.160;11.752;2022-07-05T08:55:07;5.35;;;1.90;;
71456;SDS011;59263;48.160;11.752;2022-07-05T08:57:32;6.07;;;1.90;;
71456;SDS011;59263;48.160;11.752;2022-07-05T08:59:57;7.00;;;1.70;;
71456;SDS011;59263;48.160;11.752;2022-07-05T09:02:23;6.40;;;2.00;;
71456;SDS011;59263;48.160;11.752;2022-07-05T09:04:48;6.70;;;1.90;;
71456;SDS011;59263;48.160;11.752;2022-07-05T09:07:16;6.53;;;1.90;;
71456;SDS011;59263;48.160;11.752;2022-07-05T09:09:42;5.80;;;1.83;;
71456;SDS011;59263;48.160;11.752;2022-07-05T09:12:08;5.07;;;1.88;;
71456;SDS011;59263;48.160;11.752;2022-07-05T09:14:37;5.43;;;2.00;;
71456;SDS011;59263;48.160;11.752;2022-07-05T09:17:02;7.67;;;2.00;;
71456;SDS011;59263;48.160;11.752;2022-07-05T09:19:29;9.77;;;2.20;;
71456;SDS011;59263;48.160;11.752;2022-07-05T09:22:05;6.95;;;2.10;;
71456;SDS011;59263;48.160;11.752;2022-07-05T09:24:31;5.50;;;1.75;;
71456;SDS011;59263;48.160;11.752;2022-07-05T09:27:03;5.95;;;1.85;;
71456;SDS011;59263;48.160;11.752;2022-07-05T09:29:29;7.25;;;1.90;;
71456;SDS011;59263;48.160;11.752;2022-07-05T09:31:54;6.80;;;1.90;;
71456;SDS011;59263;48.160;11.752;2022-07-05T09:34:20;7.03;;;2.07;;
71456;SDS011;59263;48.160;11.752;2022-07-05T09:36:47;7.43;;;2.13;;
71456;SDS011;59263;48.160;11.752;2022-07-05T09:42:08;8.27;;;1.97;;
71456;SDS011;59263;48.160;11.752;2022-07-05T09:44:37;5.20;;;1.90;;
71456;SDS011;59263;48.160;11.752;2022-07-05T09:47:06;5.72;;;1.83;;
71456;SDS011;59263;48.160;11.752;2022-07-05T09:49:35;6.05;;;2.40;;
71456;SDS011;59263;48.160;11.752;2022-07-05T09:52:00;6.07;;;1.73;;
71456;SDS011;59263;48.160;11.752;2022-07-05T09:54:26;5.47;;;1.90;;
71456;SDS011;59263;48.160;11.752;2022-07-05T09:56:51;5.37;;;1.80;;
71456;SDS011;59263;48.160;11.752;2022-07-05T09:59:17;6.83;;;1.70;;
71456;SDS011;59263;48.160;11.752;2022-07-05T10:01:44;9.43;;;2.10;;
71456;SDS011;59263;48.160;11.752;2022-07-05T10:04:10;5.80;;;2.20;;
71456;SDS011;59263;48.160;11.752;2022-07-05T10:06:35;5.73;;;2.10;;
71456;SDS011;59263;48.160;11.752;2022-07-05T10:09:01;6.30;;;2.20;;
71456;SDS011;59263;48.160;11.752;2022-07-05T10:11:26;6.10;;;2.33;;
71456;SDS011;59263;48.160;11.752;2022-07-05T10:13:53;5.40;;;2.10;;
71456;SDS011;59263;48.160;11.752;2022-07-05T10:16:19;5.70;;;2.10;;
71456;SDS011;59263;48.160;11.752;2022-07-05T10:18:46;6.40;;;2.00;;
71456;SDS011;59263;48.160;11.752;2022-07-05T10:21:15;6.15;;;1.90;;
71456;SDS011;59263;48.160;11.752;2022-07-05T10:23:46;5.53;;;2.10;;
71456;SDS011;59263;48.160;11.752;2022-07-05T10:26:13;7.60;;;2.10;;
71456;SDS011;59263;48.160;11.752;2022-07-05T10:28:40;5.75;;;1.80;;
71456;SDS011;59263;48.160;11.752;2022-07-05T10:31:06;6.80;;;2.10;;
71456;SDS011;59263;48.160;11.752;2022-07-05T10:33:34;5.53;;;2.05;;
71456;SDS011;59263;48.160;11.752;2022-07-05T10:36:00;4.90;;;1.90;;
71456;SDS011;59263;48.160;11.752;2022-07-05T10:38:26;6.05;;;2.00;;
71456;SDS011;59263;48.160;11.752;2022-07-05T10:40:53;7.07;;;2.10;;
71456;SDS011;59263;48.160;11.752;2022-07-05T10:43:23;5.28;;;2.10;;
71456;SDS011;59263;48.160;11.752;2022-07-05T10:45:49;5.40;;;1.93;;
71456;SDS011;59263;48.160;11.752;2022-07-05T10:48:19;5.25;;;1.90;;
71456;SDS011;59263;48.160;11.752;2022-07-05T10:50:51;5.70;;;1.80;;
71456;SDS011;59263;48.160;11.752;2022-07-05T10:53:18;6.30;;;2.35;;
71456;SDS011;59263;48.160;11.752;2022-07-05T10:58:46;4.80;;;1.80;;
71456;SDS011;59263;48.160;11.752;2022-07-05T11:03:38;5.70;;;2.07;;
71456;SDS011;59263;48.160;11.752;2022-07-05T11:06:05;5.57;;;1.80;;
71456;SDS011;59263;48.160;11.752;2022-07-05T11:11:44;7.47;;;1.77;;
71456;SDS011;59263;48.160;11.752;2022-07-05T11:16:44;5.55;;;1.63;;
71456;SDS011;59263;48.160;11.752;2022-07-05T11:19:10;4.60;;;1.57;;
71456;SDS011;59263;48.160;11.752;2022-07-05T11:21:38;4.72;;;1.70;;
71456;SDS011;59263;48.160;11.752;2022-07-05T11:24:18;5.13;;;1.92;;
71456;SDS011;59263;48.160;11.752;2022-07-05T11:26:47;4.22;;;1.38;;
71456;SDS011;59263;48.160;11.752;2022-07-05T11:32:13;5.37;;;1.77;;
71456;SDS011;59263;48.160;11.752;2022-07-05T11:34:41;5.50;;;1.52;;
71456;SDS011;59263;48.160;11.752;2022-07-05T11:42:46;5.32;;;1.52;;
71456;SDS011;59263;48.160;11.752;2022-07-05T11:45:12;6.23;;;1.50;;
71456;SDS011;59263;48.160;11.752;2022-07-05T11:47:38;7.63;;;1.30;;
71456;SDS011;59263;48.160;11.752;2022-07-05T11:50:04;6.72;;;1.40;;
71456;SDS011;59263;48.160;11.752;2022-07-05T11:52:31;5.80;;;1.33;;
71456;SDS011;59263;48.160;11.752;2022-07-05T11:54:58;4.90;;;1.50;;
71456;SDS011;59263;48.160;11.752;2022-07-05T11:57:25;3.13;;;1.30;;
71456;SDS011;59263;48.160;11.752;2022-07-05T11:59:50;5.32;;;1.58;;
71456;SDS011;59263;48.160;11.752;2022-07-05T12:02:16;5.20;;;1.77;;
71456;SDS011;59263;48.160;11.752;2022-07-05T12:04:49;5.07;;;1.60;;
71456;SDS011;59263;48.160;11.752;2022-07-05T12:07:32;4.35;;;1.33;;
71456;SDS011;59263;48.160;11.752;2022-07-05T12:09:59;4.37;;;1.50;;
71456;SDS011;59263;48.160;11.752;2022-07-05T12:12:44;4.22;;;1.38;;
71456;SDS011;59263;48.160;11.752;2022-07-05T12:15:12;5.57;;;1.97;;
71456;SDS011;59263;48.160;11.752;2022-07-05T12:17:38;4.68;;;1.42;;
71456;SDS011;59263;48.160;11.752;2022-07-05T12:20:05;6.50;;;1.70;;
71456;SDS011;59263;48.160;11.752;2022-07-05T12:22:32;4.93;;;1.60;;
71456;SDS011;59263;48.160;11.752;2022-07-05T12:24:59;4.53;;;1.60;;
71456;SDS011;59263;48.160;11.752;2022-07-05T12:27:29;5.90;;;1.77;;
71456;SDS011;59263;48.160;11.752;2022-07-05T12:29:57;5.80;;;1.60;;
71456;SDS011;59263;48.160;11.752;2022-07-05T12:32:22;4.85;;;1.70;;
71456;SDS011;59263;48.160;11.752;2022-07-05T12:34:48;6.77;;;1.80;;
71456;SDS011;59263;48.160;11.752;2022-07-05T12:37:23;5.50;;;1.48;;
71456;SDS011;59263;48.160;11.752;2022-07-05T12:39:50;4.80;;;1.60;;
71456;SDS011;59263;48.160;11.752;2022-07-05T12:42:32;5.65;;;1.60;;
71456;SDS011;59263;48.160;11.752;2022-07-05T12:45:14;4.55;;;1.58;;
71456;SDS011;59263;48.160;11.752;2022-07-05T12:47:53;4.32;;;1.45;;
71456;SDS011;59263;48.160;11.752;2022-07-05T12:50:20;4.82;;;1.65;;
71456;SDS011;59263;48.160;11.752;2022-07-05T12:52:59;5.47;;;1.70;;
71456;SDS011;59263;48.160;11.752;2022-07-05T12:55:48;5.78;;;1.50;;
71456;SDS011;59263;48.160;11.752;2022-07-05T12:58:33;4.95;;;1.48;;
71456;SDS011;59263;48.160;11.752;2022-07-05T13:01:35;5.10;;;1.50;;
71456;SDS011;59263;48.160;11.752;2022-07-05T13:04:09;6.63;;;1.60;;
71456;SDS011;59263;48.160;11.752;2022-07-05T13:06:47;6.30;;;1.70;;
71456;SDS011;59263;48.160;11.752;2022-07-05T13:09:16;4.63;;;1.40;;
71456;SDS011;59263;48.160;11.752;2022-07-05T13:12:06;4.47;;;1.50;;
71456;SDS011;59263;48.160;11.752;2022-07-05T13:14:34;4.75;;;1.40;;
71456;SDS011;59263;48.160;11.752;2022-07-05T13:17:00;7.50;;;1.70;;
71456;SDS011;59263;48.160;11.752;2022-07-05T13:19:26;5.10;;;1.50;;
71456;SDS011;59263;48.160;11.752;2022-07-05T13:21:53;4.75;;;1.60;;
71456;SDS011;59263;48.160;11.752;2022-07-05T13:24:19;6.10;;;1.73;;
71456;SDS011;59263;48.160;11.752;2022-07-05T13:26:44;5.53;;;1.60;;
71456;SDS011;59263;48.160;11.752;2022-07-05T13:29:10;5.87;;;1.50;;
71456;SDS011;59263;48.160;11.752;2022-07-05T13:31:35;5.68;;;1.50;;
71456;SDS011;59263;48.160;11.752;2022-07-05T13:34:01;4.90;;;1.60;;
71456;SDS011;59263;48.160;11.752;2022-07-05T13:36:26;6.13;;;1.47;;
71456;SDS011;59263;48.160;11.752;2022-07-05T13:38:52;6.35;;;1.40;;
71456;SDS011;59263;48.160;11.752;2022-07-05T13:41:17;6.20;;;1.60;;
71456;SDS011;59263;48.160;11.752;2022-07-05T13:43:43;4.77;;;1.30;;
71456;SDS011;59263;48.160;11.752;2022-07-05T13:46:09;4.32;;;1.48;;
71456;SDS011;59263;48.160;11.752;2022-07-05T13:48:38;8.25;;;1.50;;
71456;SDS011;59263;48.160;11.752;2022-07-05T13:51:04;3.70;;;1.42;;
71456;SDS011;59263;48.160;11.752;2022-07-05T13:53:30;3.47;;;1.30;;
71456;SDS011;59263;48.160;11.752;2022-07-05T13:55:56;5.07;;;1.52;;
71456;SDS011;59263;48.160;11.752;2022-07-05T13:58:21;6.97;;;1.90;;
71456;SDS011;59263;48.160;11.752;2022-07-05T14:00:48;4.82;;;1.45;;
71456;SDS011;59263;48.160;11.752;2022-07-05T14:03:14;5.05;;;1.60;;
71456;SDS011;59263;48.160;11.752;2022-07-05T14:05:41;4.83;;;1.60;;
71456;SDS011;59263;48.160;11.752;2022-07-05T14:08:10;3.88;;;1.42;;
71456;SDS011;59263;48.160;11.752;2022-07-05T14:10:37;6.65;;;1.40;;
71456;SDS011;59263;48.160;11.752;2022-07-05T14:13:02;4.70;;;1.43;;
71456;SDS011;59263;48.160;11.752;2022-07-05T14:15:27;4.30;;;1.70;;
71456;SDS011;59263;48.160;11.752;2022-07-05T14:17:53;5.32;;;1.60;;
71456;SDS011;59263;48.160;11.752;2022-07-05T14:20:18;5.55;;;1.92;;
71456;SDS011;59263;48.160;11.752;2022-07-05T14:22:43;4.13;;;1.30;;
71456;SDS011;59263;48.160;11.752;2022-07-05T14:25:09;4.67;;;1.50;;
71456;SDS011;59263;48.160;11.752;2022-07-05T14:27:34;4.20;;;1.50;;
71456;SDS011;59263;48.160;11.752;2022-07-05T14:29:59;3.87;;;1.50;;
71456;SDS011;59263;48.160;11.752;2022-07-05T14:32:25;5.50;;;1.40;;
71456;SDS011;59263;48.160;11.752;2022-07-05T14:34:50;4.73;;;1.57;;
71456;SDS011;59263;48.160;11.752;2022-07-05T14:37:15;5.17;;;1.50;;
71456;SDS011;59263;48.160;11.752;2022-07-05T14:39:45;5.25;;;1.60;;
71456;SDS011;59263;48.160;11.752;2022-07-05T14:42:10;5.93;;;1.60;;
71456;SDS011;59263;48.160;11.752;2022-07-05T14:44:36;7.50;;;1.53;;
71456;SDS011;59263;48.160;11.752;2022-07-05T14:47:01;6.10;;;1.80;;
71456;SDS011;59263;48.160;11.752;2022-07-05T14:49:26;5.27;;;1.40;;